createdAt,value
2019-03-19T00:00:27.243Z,1.36
2019-03-19T00:02:56.086Z,1.42
2019-03-19T00:05:25.064Z,1.47
2019-03-19T00:07:53.944Z,1.44
2019-03-19T00:10:22.873Z,1.36
2019-03-19T00:12:51.799Z,1.32
2019-03-19T00:15:20.797Z,1.22
2019-03-19T00:17:49.670Z,1.27
2019-03-19T00:20:18.652Z,1.24
2019-03-19T00:22:47.659Z,1.27
2019-03-19T00:25:16.566Z,1.28
2019-03-19T00:27:45.459Z,1.31
2019-03-19T00:30:14.545Z,1.46
2019-03-19T00:32:43.383Z,1.53
2019-03-19T00:35:12.532Z,1.41
2019-03-19T00:37:41.379Z,1.25
2019-03-19T00:40:11.021Z,1.24
2019-03-19T00:42:40.184Z,1.12
2019-03-19T00:45:09.434Z,1.20
2019-03-19T00:47:38.292Z,1.23
2019-03-19T00:50:07.690Z,1.11
2019-03-19T00:52:36.636Z,0.99
2019-03-19T00:55:05.827Z,0.94
2019-03-19T00:57:34.602Z,0.98
2019-03-19T01:00:04.257Z,0.86
2019-03-19T01:02:33.276Z,0.79
2019-03-19T01:05:02.094Z,0.81
2019-03-19T01:07:30.974Z,0.11
2019-03-19T01:09:59.803Z,1.03
2019-03-19T01:12:28.714Z,0.88
2019-03-19T01:14:57.475Z,0.88
2019-03-19T01:17:26.340Z,0.88
2019-03-19T01:19:56.331Z,0.94
2019-03-19T01:22:25.207Z,1.04
2019-03-19T01:24:54.123Z,1.21
2019-03-19T01:27:23.080Z,1.24
2019-03-19T01:29:51.931Z,1.21
2019-03-19T01:32:20.771Z,1.15
2019-03-19T01:34:49.545Z,1.07
2019-03-19T01:37:18.447Z,1.08
2019-03-19T01:39:47.383Z,1.09
2019-03-19T01:42:16.226Z,1.14
2019-03-19T01:44:45.169Z,1.10
2019-03-19T01:47:18.637Z,1.16
2019-03-19T01:49:47.673Z,1.19
2019-03-19T01:52:16.669Z,1.33
2019-03-19T01:54:45.628Z,1.56
2019-03-19T01:57:14.450Z,1.96
2019-03-19T01:59:43.223Z,1.82
2019-03-19T02:02:12.256Z,1.81
2019-03-19T02:04:41.101Z,1.79
2019-03-19T02:07:09.894Z,1.74
2019-03-19T02:09:38.768Z,1.92
2019-03-19T02:12:07.667Z,1.99
2019-03-19T02:14:36.567Z,2.14
2019-03-19T02:17:05.496Z,2.45
2019-03-19T02:19:34.339Z,2.39
2019-03-19T02:22:03.311Z,2.28
2019-03-19T02:24:32.220Z,2.22
2019-03-19T02:27:01.346Z,2.25
2019-03-19T02:29:30.339Z,2.21
2019-03-19T02:31:59.260Z,2.22
2019-03-19T02:34:29.105Z,2.26
2019-03-19T02:36:58.007Z,2.30
2019-03-19T02:39:26.974Z,2.06
2019-03-19T02:41:55.886Z,1.87
2019-03-19T02:44:24.666Z,1.77
2019-03-19T02:46:53.576Z,1.63
2019-03-19T02:49:22.629Z,1.36
2019-03-19T02:51:51.522Z,1.16
2019-03-19T02:54:20.464Z,1.02
2019-03-19T02:56:49.347Z,1.04
2019-03-19T02:59:18.286Z,1.05
2019-03-19T03:01:47.265Z,0.94
2019-03-19T03:04:16.234Z,0.90
2019-03-19T03:06:45.213Z,0.81
2019-03-19T03:09:14.070Z,0.73
2019-03-19T03:11:43.023Z,0.58
2019-03-19T03:14:11.862Z,0.74
2019-03-19T03:16:40.803Z,0.89
2019-03-19T03:19:09.818Z,0.91
2019-03-19T03:21:38.662Z,0.77
2019-03-19T03:24:07.622Z,0.73
2019-03-19T03:26:47.798Z,0.84
2019-03-19T03:29:07.989Z,0.80
2019-03-19T03:31:36.890Z,0.74
2019-03-19T03:34:05.894Z,0.47
2019-03-19T03:36:34.724Z,0.32
2019-03-19T03:39:04.666Z,0.21
2019-03-19T03:41:33.596Z,0.31
2019-03-19T03:44:02.562Z,0.32
2019-03-19T03:46:31.411Z,0.26
2019-03-19T03:49:00.359Z,0.33
2019-03-19T03:51:29.229Z,0.33
2019-03-19T03:53:58.098Z,0.33
2019-03-19T03:56:26.934Z,0.19
2019-03-19T03:59:00.963Z,0.35
2019-03-19T04:01:26.495Z,0.32
2019-03-19T04:03:55.356Z,0.36
2019-03-19T04:06:24.226Z,0.28
2019-03-19T04:08:53.006Z,0.20
2019-03-19T04:11:21.745Z,0.23
2019-03-19T04:13:50.561Z,0.22
2019-03-19T04:16:19.421Z,0.27
2019-03-19T04:18:48.272Z,0.29
2019-03-19T04:21:17.232Z,0.21
2019-03-19T04:23:46.221Z,0.15
2019-03-19T04:26:15.194Z,0.16
2019-03-19T04:28:44.165Z,0.02
2019-03-19T04:31:13.111Z,0.15
2019-03-19T04:33:42.087Z,0.01
2019-03-19T04:36:10.966Z,0.30
2019-03-19T04:38:39.775Z,0.52
2019-03-19T04:41:08.680Z,0.72
2019-03-19T04:43:37.554Z,0.58
2019-03-19T04:46:06.422Z,0.50
2019-03-19T04:48:35.394Z,0.79
2019-03-19T04:51:04.720Z,0.65
2019-03-19T04:53:33.585Z,0.59
2019-03-19T04:56:02.377Z,0.41
2019-03-19T04:58:31.186Z,0.41
2019-03-19T05:01:00.200Z,0.28
2019-03-19T05:03:29.187Z,0.34
2019-03-19T05:05:59.642Z,0.30
2019-03-19T05:08:28.783Z,0.30
2019-03-19T05:10:57.581Z,0.34
2019-03-19T05:13:26.340Z,0.23
2019-03-19T05:15:55.410Z,0.09
2019-03-19T05:18:24.189Z,0.15
2019-03-19T05:20:53.102Z,0.16
2019-03-19T05:23:21.992Z,0.17
2019-03-19T05:25:50.795Z,0.18
2019-03-19T05:28:19.606Z,0.22
2019-03-19T05:30:48.422Z,0.21
2019-03-19T05:33:19.402Z,0.14
2019-03-19T05:35:47.865Z,0.03
2019-03-19T05:38:16.775Z,-0.04
2019-03-19T05:40:45.632Z,0.06
2019-03-19T05:43:14.593Z,0.05
2019-03-19T05:45:43.449Z,0.00
2019-03-19T05:48:12.274Z,-0.02
2019-03-19T05:50:41.289Z,-0.02
2019-03-19T05:53:10.098Z,0.06
2019-03-19T05:55:38.972Z,0.09
2019-03-19T05:58:07.866Z,0.32
2019-03-19T06:00:37.369Z,0.68
2019-03-19T06:03:06.345Z,0.53
2019-03-19T06:05:35.146Z,0.42
2019-03-19T06:08:04.007Z,0.35
2019-03-19T06:10:32.999Z,0.34
2019-03-19T06:13:01.890Z,0.33
2019-03-19T06:15:30.878Z,0.60
2019-03-19T06:17:59.767Z,0.85
2019-03-19T06:20:28.706Z,0.98
2019-03-19T06:22:57.588Z,0.99
2019-03-19T06:25:26.530Z,1.03
2019-03-19T06:28:00.261Z,1.06
2019-03-19T06:30:26.064Z,1.27
2019-03-19T06:32:55.041Z,1.26
2019-03-19T06:35:24.123Z,1.37
2019-03-19T06:37:53.012Z,1.42
2019-03-19T06:40:22.441Z,1.58
2019-03-19T06:42:51.518Z,1.72
2019-03-19T06:45:22.882Z,1.78
2019-03-19T06:47:51.280Z,1.91
2019-03-19T06:50:20.545Z,1.96
2019-03-19T06:52:49.542Z,2.16
2019-03-19T06:55:18.872Z,2.41
2019-03-19T06:57:48.247Z,2.48
2019-03-19T07:00:18.278Z,2.30
2019-03-19T07:02:47.273Z,2.28
2019-03-19T07:05:16.713Z,2.28
2019-03-19T07:07:45.643Z,2.25
2019-03-19T07:10:14.633Z,2.41
2019-03-19T07:12:43.603Z,2.44
2019-03-19T07:15:13.625Z,2.50
2019-03-19T07:17:42.495Z,2.54
2019-03-19T07:20:13.049Z,2.60
2019-03-19T07:22:42.035Z,2.60
2019-03-19T07:25:11.134Z,2.69
2019-03-19T07:27:40.100Z,3.01
2019-03-19T07:30:13.141Z,3.04
2019-03-19T07:32:42.235Z,3.38
2019-03-19T07:35:11.325Z,3.26
2019-03-19T07:37:43.348Z,3.23
2019-03-19T07:40:12.590Z,3.33
2019-03-19T07:42:41.756Z,3.47
2019-03-19T07:45:13.142Z,3.71
2019-03-19T07:47:42.196Z,4.01
2019-03-19T07:50:12.540Z,3.84
2019-03-19T07:52:41.399Z,3.74
2019-03-19T07:55:10.486Z,3.96
2019-03-19T07:57:39.374Z,4.00
2019-03-19T08:00:09.808Z,4.04
2019-03-19T08:02:38.756Z,4.04
2019-03-19T08:05:08.736Z,4.12
2019-03-19T08:07:37.625Z,4.15
2019-03-19T08:10:06.966Z,4.19
2019-03-19T08:12:35.999Z,4.60
2019-03-19T08:15:05.633Z,4.58
2019-03-19T08:17:34.613Z,4.85
2019-03-19T08:20:03.832Z,4.91
2019-03-19T08:22:32.758Z,4.99
2019-03-19T08:25:01.821Z,5.34
2019-03-19T08:27:30.693Z,5.29
2019-03-19T08:29:59.776Z,5.29
2019-03-19T08:32:28.755Z,5.27
2019-03-19T08:34:57.825Z,5.27
2019-03-19T08:37:26.808Z,5.51
2019-03-19T08:39:56.725Z,5.31
2019-03-19T08:42:25.773Z,5.40
2019-03-19T08:44:54.553Z,5.33
2019-03-19T08:47:23.505Z,5.53
2019-03-19T08:49:52.379Z,5.78
2019-03-19T08:52:21.427Z,5.47
2019-03-19T08:54:50.375Z,5.38
2019-03-19T08:57:19.248Z,5.42
2019-03-19T08:59:48.115Z,5.74
2019-03-19T09:02:17.277Z,5.96
2019-03-19T09:04:46.190Z,6.18
2019-03-19T09:07:15.196Z,6.30
2019-03-19T09:09:44.008Z,6.47
2019-03-19T09:12:12.920Z,6.59
2019-03-19T09:14:42.018Z,6.52
2019-03-19T09:17:11.048Z,6.70
2019-03-19T09:19:41.030Z,6.88
2019-03-19T09:22:10.052Z,6.99
2019-03-19T09:24:38.820Z,7.01
2019-03-19T09:27:07.782Z,7.16
2019-03-19T09:29:36.799Z,7.19
2019-03-19T09:32:05.754Z,7.18
2019-03-19T09:34:34.690Z,7.27
2019-03-19T09:37:03.971Z,7.64
2019-03-19T09:39:32.903Z,7.43
2019-03-19T09:42:01.919Z,7.66
2019-03-19T09:44:30.864Z,7.88
2019-03-19T09:46:59.792Z,8.22
2019-03-19T09:49:28.750Z,8.27
2019-03-19T09:51:57.759Z,8.43
2019-03-19T09:54:26.774Z,8.40
2019-03-19T09:56:55.790Z,8.23
2019-03-19T09:59:27.382Z,8.41
2019-03-19T10:01:55.588Z,8.31
2019-03-19T10:04:24.519Z,8.74
2019-03-19T10:06:53.330Z,8.88
2019-03-19T10:09:22.687Z,9.05
2019-03-19T10:11:51.635Z,9.20
2019-03-19T10:14:20.611Z,9.60
2019-03-19T10:16:49.521Z,9.88
2019-03-19T10:19:18.536Z,10.22
2019-03-19T10:21:47.582Z,10.32
2019-03-19T10:24:16.658Z,10.41
2019-03-19T10:26:45.675Z,10.21
2019-03-19T10:29:14.642Z,9.94
2019-03-19T10:31:43.580Z,9.79
2019-03-19T10:34:12.474Z,9.14
2019-03-19T10:36:41.389Z,8.71
2019-03-19T10:39:10.565Z,8.71
2019-03-19T10:41:39.381Z,8.54
2019-03-19T10:44:08.405Z,8.41
2019-03-19T10:46:37.432Z,8.43
2019-03-19T10:49:06.429Z,8.19
2019-03-19T10:51:35.397Z,7.88
2019-03-19T10:54:04.486Z,8.01
2019-03-19T10:56:33.416Z,8.06
2019-03-19T10:59:02.541Z,8.14
2019-03-19T11:01:31.532Z,8.00
2019-03-19T11:04:00.475Z,7.90
2019-03-19T11:06:29.376Z,7.83
2019-03-19T11:08:58.338Z,7.88
2019-03-19T11:11:27.375Z,8.03
2019-03-19T11:13:56.263Z,7.95
2019-03-19T11:16:25.369Z,8.10
2019-03-19T11:18:57.526Z,8.23
2019-03-19T11:21:26.435Z,8.45
2019-03-19T11:23:55.252Z,8.78
2019-03-19T11:26:24.207Z,9.10
2019-03-19T11:28:53.248Z,9.20
2019-03-19T11:31:22.147Z,9.13
2019-03-19T11:33:51.129Z,9.36
2019-03-19T11:36:20.069Z,9.41
2019-03-19T11:38:49.079Z,9.28
2019-03-19T11:41:18.030Z,9.42
2019-03-19T11:43:46.949Z,9.34
2019-03-19T11:46:15.868Z,9.45
2019-03-19T11:48:45.042Z,9.51
2019-03-19T11:51:14.160Z,9.77
2019-03-19T11:53:43.119Z,9.64
2019-03-19T11:56:11.983Z,9.53
2019-03-19T11:58:40.927Z,9.54
2019-03-19T12:01:09.924Z,9.41
2019-03-19T12:03:38.835Z,9.56
2019-03-19T12:06:07.823Z,9.52
2019-03-19T12:08:36.678Z,9.34
2019-03-19T12:11:05.798Z,9.77
2019-03-19T12:13:34.827Z,9.83
2019-03-19T12:16:04.007Z,9.85
2019-03-19T12:18:32.907Z,9.87
2019-03-19T12:21:05.732Z,9.74
2019-03-19T12:23:34.726Z,9.66
2019-03-19T12:26:03.704Z,9.78
2019-03-19T12:28:39.590Z,9.83
2019-03-19T12:31:05.148Z,9.98
2019-03-19T12:33:40.948Z,10.13
2019-03-19T12:36:04.701Z,10.04
2019-03-19T12:38:33.549Z,9.89
2019-03-19T12:41:02.433Z,9.86
2019-03-19T12:43:31.328Z,9.60
2019-03-19T12:46:00.188Z,9.50
2019-03-19T12:48:29.026Z,9.56
2019-03-19T12:50:57.933Z,9.37
2019-03-19T12:53:26.878Z,9.30
2019-03-19T12:55:56.472Z,9.41
2019-03-19T12:58:25.427Z,9.62
2019-03-19T13:00:55.699Z,9.72
2019-03-19T13:03:24.645Z,10.12
2019-03-19T13:05:53.667Z,10.21
2019-03-19T13:08:22.609Z,10.33
2019-03-19T13:10:51.603Z,10.51
2019-03-19T13:13:20.511Z,10.54
2019-03-19T13:15:49.728Z,10.73
2019-03-19T13:18:18.723Z,11.01
2019-03-19T13:20:47.632Z,11.01
2019-03-19T13:23:16.541Z,11.04
2019-03-19T13:25:45.465Z,11.27
2019-03-19T13:28:14.368Z,11.26
2019-03-19T13:30:45.448Z,11.23
2019-03-19T13:33:13.881Z,11.44
2019-03-19T13:35:42.855Z,11.37
2019-03-19T13:38:12.796Z,11.58
2019-03-19T13:40:41.945Z,11.76
2019-03-19T13:43:10.814Z,11.79
2019-03-19T13:45:39.796Z,12.36
2019-03-19T13:48:08.705Z,13.00
2019-03-19T13:50:37.637Z,13.58
2019-03-19T13:53:06.664Z,13.69
2019-03-19T13:55:35.754Z,13.89
2019-03-19T13:58:06.930Z,14.35
2019-03-19T14:00:36.119Z,14.79
2019-03-19T14:03:05.400Z,14.86
2019-03-19T14:05:34.307Z,15.32
2019-03-19T14:08:03.324Z,15.28
2019-03-19T14:10:32.177Z,15.58
2019-03-19T14:13:01.103Z,15.84
2019-03-19T14:15:30.069Z,15.30
2019-03-19T14:17:58.864Z,15.98
2019-03-19T14:20:27.770Z,15.59
2019-03-19T14:22:56.681Z,15.54
2019-03-19T14:25:25.712Z,16.05
2019-03-19T14:27:54.679Z,16.43
2019-03-19T14:30:23.680Z,16.99
2019-03-19T14:32:52.729Z,15.96
2019-03-19T14:35:21.721Z,16.47
2019-03-19T14:37:50.641Z,16.74
2019-03-19T14:40:19.945Z,15.89
2019-03-19T14:42:49.070Z,16.31
2019-03-19T14:45:18.346Z,16.57
2019-03-19T14:47:47.403Z,16.79
2019-03-19T14:50:16.871Z,16.17
2019-03-19T14:52:45.744Z,16.38
2019-03-19T14:55:14.732Z,16.50
2019-03-19T14:57:43.916Z,16.41
2019-03-19T15:00:14.404Z,16.41
2019-03-19T15:02:43.459Z,16.94
2019-03-19T15:05:12.935Z,16.87
2019-03-19T15:07:41.919Z,16.32
2019-03-19T15:10:12.792Z,16.80
2019-03-19T15:12:41.755Z,16.33
2019-03-19T15:15:12.392Z,16.79
2019-03-19T15:17:41.197Z,16.99
2019-03-19T15:20:12.665Z,16.99
2019-03-19T15:22:41.626Z,17.58
2019-03-19T15:25:10.519Z,17.58
2019-03-19T15:27:39.583Z,17.61
2019-03-19T15:30:08.952Z,17.28
2019-03-19T15:32:37.990Z,17.11
2019-03-19T15:35:08.376Z,17.29
2019-03-19T15:37:37.294Z,18.09
2019-03-19T15:40:07.909Z,18.09
2019-03-19T15:42:36.726Z,18.08
2019-03-19T15:45:07.614Z,18.45
2019-03-19T15:47:36.721Z,17.65
2019-03-19T15:50:06.804Z,17.68
2019-03-19T15:52:35.832Z,17.50
2019-03-19T15:55:05.023Z,17.99
2019-03-19T15:57:34.008Z,18.57
2019-03-19T16:00:03.215Z,18.37
2019-03-19T16:02:32.104Z,18.57
2019-03-19T16:05:01.043Z,18.41
2019-03-19T16:07:29.987Z,18.41
2019-03-19T16:09:58.900Z,18.06
2019-03-19T16:12:27.977Z,18.30
2019-03-19T16:14:56.848Z,17.02
2019-03-19T16:17:26.009Z,17.42
2019-03-19T16:19:54.927Z,17.46
2019-03-19T16:22:23.853Z,17.71
2019-03-19T16:24:52.730Z,17.41
2019-03-19T16:27:21.737Z,16.96
2019-03-19T16:29:50.963Z,17.08
2019-03-19T16:32:20.041Z,16.91
2019-03-19T16:34:48.978Z,16.52
2019-03-19T16:37:17.768Z,16.29
2019-03-19T16:39:46.606Z,16.30
2019-03-19T16:42:15.521Z,16.38
2019-03-19T16:44:44.542Z,16.57
2019-03-19T16:47:13.447Z,15.77
2019-03-19T16:49:42.605Z,15.16
2019-03-19T16:52:11.684Z,14.52
2019-03-19T16:54:40.652Z,13.78
2019-03-19T16:57:09.631Z,13.37
2019-03-19T16:59:38.462Z,12.78
2019-03-19T17:02:07.429Z,12.82
2019-03-19T17:04:36.292Z,13.17
2019-03-19T17:07:05.231Z,13.23
2019-03-19T17:09:34.149Z,12.94
2019-03-19T17:12:03.076Z,12.57
2019-03-19T17:14:32.002Z,12.27
2019-03-19T17:17:00.887Z,11.84
2019-03-19T17:19:29.781Z,11.39
2019-03-19T17:21:58.797Z,11.08
2019-03-19T17:24:29.098Z,10.74
2019-03-19T17:26:58.011Z,10.53
2019-03-19T17:29:26.932Z,10.36
2019-03-19T17:31:55.957Z,10.11
2019-03-19T17:34:24.895Z,9.99
2019-03-19T17:36:53.794Z,9.81
2019-03-19T17:39:22.723Z,9.56
2019-03-19T17:41:51.744Z,9.30
2019-03-19T17:44:20.564Z,9.45
2019-03-19T17:46:49.455Z,9.34
2019-03-19T17:49:19.067Z,9.29
2019-03-19T17:51:47.916Z,9.21
2019-03-19T17:54:16.899Z,9.06
2019-03-19T17:56:45.758Z,8.86
2019-03-19T17:59:14.655Z,8.80
2019-03-19T18:01:43.559Z,8.79
2019-03-19T18:04:12.381Z,8.69
2019-03-19T18:06:43.084Z,8.54
2019-03-19T18:09:11.866Z,8.45
2019-03-19T18:11:40.763Z,8.36
2019-03-19T18:14:09.742Z,8.35
2019-03-19T18:16:38.702Z,8.33
2019-03-19T18:19:07.656Z,8.36
2019-03-19T18:21:36.670Z,8.27
2019-03-19T18:24:05.563Z,8.21
2019-03-19T18:26:34.977Z,8.17
2019-03-19T18:29:03.892Z,7.93
2019-03-19T18:31:32.826Z,7.77
2019-03-19T18:34:10.183Z,7.86
2019-03-19T18:36:33.854Z,7.74
2019-03-19T18:39:02.736Z,7.58
2019-03-19T18:41:31.767Z,7.49
2019-03-19T18:44:01.035Z,7.35
2019-03-19T18:46:29.874Z,7.19
2019-03-19T18:48:58.707Z,7.23
2019-03-19T18:51:27.528Z,7.17
2019-03-19T18:53:57.153Z,7.32
2019-03-19T18:56:26.035Z,7.42
2019-03-19T18:58:54.943Z,7.38
2019-03-19T19:01:23.867Z,7.37
2019-03-19T19:03:52.913Z,7.30
2019-03-19T19:06:21.842Z,6.97
2019-03-19T19:08:50.651Z,6.78
2019-03-19T19:11:19.500Z,6.73
2019-03-19T19:13:48.492Z,6.72
2019-03-19T19:16:17.411Z,6.71
2019-03-19T19:18:46.402Z,6.63
2019-03-19T19:21:15.366Z,6.47
2019-03-19T19:23:44.264Z,6.34
2019-03-19T19:26:13.350Z,6.46
2019-03-19T19:28:42.449Z,6.39
2019-03-19T19:31:11.373Z,6.36
2019-03-19T19:33:40.253Z,6.13
2019-03-19T19:36:09.276Z,5.99
2019-03-19T19:38:38.058Z,5.93
2019-03-19T19:41:07.041Z,5.73
2019-03-19T19:43:35.998Z,5.59
2019-03-19T19:46:05.263Z,5.41
2019-03-19T19:48:34.255Z,5.24
2019-03-19T19:51:03.176Z,5.19
2019-03-19T19:53:32.008Z,5.26
2019-03-19T19:56:00.812Z,5.24
2019-03-19T19:58:29.713Z,5.11
2019-03-19T20:00:58.612Z,4.93
2019-03-19T20:03:27.624Z,4.92
2019-03-19T20:05:56.438Z,5.03
2019-03-19T20:08:25.314Z,5.05
2019-03-19T20:10:54.546Z,5.05
2019-03-19T20:13:23.438Z,5.03
2019-03-19T20:15:52.244Z,4.93
2019-03-19T20:18:21.184Z,5.00
2019-03-19T20:20:50.152Z,4.98
2019-03-19T20:23:19.054Z,5.09
2019-03-19T20:25:48.036Z,5.02
2019-03-19T20:28:16.991Z,4.83
2019-03-19T20:30:46.175Z,4.32
2019-03-19T20:33:24.470Z,4.51
2019-03-19T20:35:45.575Z,4.44
2019-03-19T20:38:14.397Z,4.33
2019-03-19T20:40:43.233Z,4.32
2019-03-19T20:43:12.079Z,4.24
2019-03-19T20:45:40.938Z,4.14
2019-03-19T20:48:09.894Z,4.22
2019-03-19T20:50:38.924Z,4.12
2019-03-19T20:53:07.877Z,4.02
2019-03-19T20:55:36.965Z,4.01
2019-03-19T20:58:06.002Z,4.01
2019-03-19T21:00:34.967Z,4.08
2019-03-19T21:03:04.699Z,3.91
2019-03-19T21:05:33.807Z,3.78
2019-03-19T21:08:03.164Z,3.73
2019-03-19T21:10:32.116Z,3.92
2019-03-19T21:13:01.140Z,3.77
2019-03-19T21:15:30.224Z,3.70
2019-03-19T21:17:59.420Z,3.70
2019-03-19T21:20:28.313Z,3.79
2019-03-19T21:22:57.115Z,3.72
2019-03-19T21:25:25.894Z,3.61
2019-03-19T21:27:54.779Z,3.55
2019-03-19T21:30:23.747Z,3.54
2019-03-19T21:32:52.959Z,4.08
2019-03-19T21:35:22.281Z,4.34
2019-03-19T21:37:51.356Z,4.39
2019-03-19T21:40:20.565Z,4.05
2019-03-19T21:42:49.590Z,3.87
2019-03-19T21:45:18.762Z,3.59
2019-03-19T21:47:47.749Z,3.48
2019-03-19T21:50:16.807Z,3.37
2019-03-19T21:52:46.006Z,3.19
2019-03-19T21:55:14.995Z,3.12
2019-03-19T21:57:43.883Z,3.00
2019-03-19T22:00:16.129Z,2.91
2019-03-19T22:02:45.083Z,2.77
2019-03-19T22:05:14.254Z,2.78
2019-03-19T22:07:43.199Z,2.71
2019-03-19T22:10:13.225Z,2.70
2019-03-19T22:12:42.446Z,2.62
2019-03-19T22:15:14.442Z,2.54
2019-03-19T22:17:43.664Z,2.45
2019-03-19T22:20:14.237Z,2.35
2019-03-19T22:22:43.150Z,2.31
2019-03-19T22:25:12.370Z,2.50
2019-03-19T22:27:41.439Z,2.34
2019-03-19T22:30:13.134Z,2.30
2019-03-19T22:32:42.130Z,2.32
2019-03-19T22:35:11.432Z,2.21
2019-03-19T22:37:43.504Z,2.37
2019-03-19T22:40:17.612Z,2.56
2019-03-19T22:42:46.572Z,2.53
2019-03-19T22:45:15.638Z,2.52
2019-03-19T22:47:44.815Z,2.55
2019-03-19T22:50:17.202Z,2.66
2019-03-19T22:52:55.845Z,2.63
2019-03-19T22:55:29.419Z,2.81
2019-03-19T22:57:59.873Z,2.80
2019-03-19T23:00:49.523Z,0.98
2019-03-19T23:03:19.972Z,2.62
2019-03-19T23:05:49.018Z,2.66
2019-03-19T23:08:17.919Z,2.63
2019-03-19T23:10:46.763Z,2.67
2019-03-19T23:13:16.162Z,2.82
2019-03-19T23:15:44.912Z,2.87
2019-03-19T23:18:13.715Z,2.86
2019-03-19T23:20:42.607Z,2.79
2019-03-19T23:23:11.485Z,2.88
2019-03-19T23:25:40.339Z,2.87
2019-03-19T23:28:09.210Z,2.65
2019-03-19T23:30:38.033Z,2.43
2019-03-19T23:33:07.110Z,2.27
2019-03-19T23:35:36.031Z,2.06
2019-03-19T23:38:04.916Z,2.05
2019-03-19T23:40:33.741Z,1.96
2019-03-19T23:43:02.729Z,2.04
2019-03-19T23:45:32.948Z,1.95
2019-03-19T23:48:01.775Z,1.91
2019-03-19T23:50:30.759Z,1.85
2019-03-19T23:53:07.194Z,1.75
2019-03-19T23:55:36.161Z,1.63
2019-03-19T23:58:05.156Z,1.50
